Flight Track Log - Related Links

Times and Time Zones

All times are in EDT time to prevent confusion due to time zone crossing. See the UPS301 flight status page for this flight to view local times or setup timezone preferences in your user account.

Time Position Orientation Groundspeed Altitude Reporting Facility
EDT Latitude Longitude Course Direction KTS MPH feet Rate Location/Type
Mon 11:05:27 PM 30.2106 -97.6793 356° North 157 181 1,400  Level FlightAware ADS-B
Mon 11:05:40 PM 30.2200 -97.6801 356° North 147 169 2,200 2,786 Climbing FlightAware ADS-B
Mon 11:05:55 PM 30.2302 -97.6808 357° North 157 181 2,700 1,636 Climbing FlightAware ADS-B
Mon 11:06:02 PM 30.2360 -97.6811 358° North 166 191 2,800 1,091 Climbing FlightAware ADS-B
Mon 11:06:06 PM 30.2384 -97.6810 North 169 194 2,900 1,714 Climbing FlightAware ADS-B
Mon 11:06:09 PM 30.2412 -97.6805 11° North 176 203 3,000 1,000 Climbing FlightAware ADS-B
Mon 11:06:12 PM 30.2438 -97.6796 20° North 182 209 3,000 857 Level FlightAware ADS-B
Mon 11:06:16 PM 30.2469 -97.6776 32° Northeast 189 217 3,100 1,500 Climbing FlightAware ADS-B
Mon 11:06:20 PM 30.2497 -97.6749 41° Northeast 196 226 3,200 1,500 Climbing FlightAware ADS-B
Mon 11:06:24 PM 30.2520 -97.6719 49° Northeast 201 231 3,300 1,714 Climbing FlightAware ADS-B
Mon 11:06:27 PM 30.2536 -97.6690 58° Northeast 208 239 3,400 1,500 Climbing FlightAware ADS-B
Mon 11:06:32 PM 30.2553 -97.6647 67° East 213 245 3,500 1,500 Climbing FlightAware ADS-B
Mon 11:06:35 PM 30.2562 -97.6614 75° East 218 251 3,600 2,526 Climbing FlightAware ADS-B
Mon 11:06:51 PM 30.2596 -97.6429 80° East 224 258 4,300 1,935 Climbing FlightAware ADS-B
Mon 11:07:06 PM 30.2623 -97.6235 81° East 242 278 4,600 1,355 Climbing FlightAware ADS-B
Mon 11:07:22 PM 30.2653 -97.6027 80° East 253 291 5,000 1,742 Climbing FlightAware ADS-B
Mon 11:07:37 PM 30.2683 -97.5825 80° East 259 298 5,500 2,063 Climbing FlightAware ADS-B
Mon 11:07:54 PM 30.2715 -97.5591 81° East 266 306 6,100 2,045 Climbing FlightAware ADS-B
Mon 11:08:21 PM 30.2769 -97.5203 81° East 267 307 7,000 2,053 Climbing FlightAware ADS-B
Mon 11:08:32 PM 30.2799 -97.5048 75° East 270 311 7,400 2,483 Climbing FlightAware ADS-B
Mon 11:08:50 PM 30.2862 -97.4804 75° East 270 311 8,200 2,455 Climbing FlightAware ADS-B
Mon 11:08:54 PM 30.2868 -97.4784 73° East 268 308 8,300 1,895 Climbing FlightAware ADS-B (KHOU)
Mon 11:09:09 PM 30.2931 -97.4541 73° East 271 312 8,800 1,800 Climbing FlightAware ADS-B (KHOU)
Mon 11:09:24 PM 30.2987 -97.4328 72° East 278 320 9,200 2,200 Climbing FlightAware ADS-B (KHOU)
Mon 11:09:39 PM 30.3046 -97.4111 72° East 285 328 9,900 2,217 Climbing FlightAware ADS-B (KHOU)
Mon 11:10:10 PM 30.3169 -97.3657 72° East 316 364 10,900 2,200 Climbing FlightAware ADS-B (KHOU)
Mon 11:10:39 PM 30.3298 -97.3172 73° East 335 386 12,100 2,550 Climbing FlightAware ADS-B (KHOU)
Mon 11:11:30 PM 30.3528 -97.2295 72° East 359 413 14,300 2,282 Climbing FlightAware ADS-B (KHOU)
Mon 11:11:50 PM 30.3598 -97.1894 88° East 388 447 14,800 1,800 Climbing FlightAware ADS-B (KHOU)
Mon 11:12:20 PM 30.3565 -97.1249 94° East 410 472 15,800 1,932 Climbing FlightAware ADS-B (KHOU)
Mon 11:12:49 PM 30.3518 -97.0584 94° East 429 494 16,700 1,831 Climbing FlightAware ADS-B (KHOU)
Mon 11:13:19 PM 30.3473 -96.9888 94° East 445 512 17,600 1,967 Climbing FlightAware ADS-B (KHOU)
Mon 11:13:50 PM 30.3429 -96.9164 93° East 456 525 18,700 2,656 Climbing FlightAware ADS-B (KHOU)
Mon 11:14:20 PM 30.3386 -96.8429 93° East 450 518 20,300 3,458 Climbing FlightAware ADS-B (KHOU)
Mon 11:14:49 PM 30.3342 -96.7724 94° East 438 504 22,100 3,000 Climbing FlightAware ADS-B (KHOU)
Mon 11:15:20 PM 30.3299 -96.7033 94° East 440 506 23,300 2,200 Climbing FlightAware ADS-B (KHOU)
Mon 11:15:49 PM 30.3254 -96.6317 94° East 446 513 24,300 2,000 Climbing FlightAware ADS-B (KHOU)
Mon 11:16:20 PM 30.3209 -96.5594 94° East 450 518 25,300 1,500 Climbing FlightAware ADS-B (KHOU)
Mon 11:16:49 PM 30.3161 -96.4862 94° East 466 536 25,800 900 Climbing FlightAware ADS-B (KHOU)
Mon 11:17:20 PM 30.3112 -96.4102 94° East 481 554 26,200 800 Climbing FlightAware ADS-B (KHOU)
Mon 11:17:49 PM 30.3080 -96.3338 90° East 501 577 26,600 915 Climbing FlightAware ADS-B (KHOU)
Mon 11:18:19 PM 30.3110 -96.2497 85° East 521 600 27,100 984 Climbing FlightAware ADS-B (KHOU)
Mon 11:18:50 PM 30.3211 -96.1659 79° East 538 619 27,600 885 Climbing FlightAware ADS-B (KHOU)
Mon 11:19:20 PM 30.3387 -96.0795 74° East 555 639 28,000 900 Climbing FlightAware ADS-B (KHOU)
Mon 11:19:50 PM 30.3640 -95.9938 68° East 567 652 28,500 1,119 Climbing FlightAware ADS-B (KHOU)
Mon 11:20:19 PM 30.3963 -95.9113 63° Northeast 574 661 29,100 1,220 Climbing FlightAware ADS-B (KHOU)
Mon 11:20:49 PM 30.4364 -95.8311 57° Northeast 581 669 29,700 1,279 Climbing FlightAware ADS-B (KHOU)
Mon 11:21:20 PM 30.4839 -95.7546 52° Northeast 580 667 30,400 1,574 Climbing FlightAware ADS-B (KHOU)
Mon 11:21:50 PM 30.5339 -95.6813 51° Northeast 577 664 31,300 1,627 Climbing FlightAware ADS-B (KHOU)
Mon 11:22:19 PM 30.5802 -95.6132 52° Northeast 576 663 32,000 1,424 Climbing FlightAware ADS-B (KHOU)
Mon 11:22:49 PM 30.6314 -95.5360 52° Northeast 576 663 32,700 811 Climbing FlightAware ADS-B (KHOU)
Mon 11:23:33 PM 30.7006 -95.4301 52° Northeast 576 663 33,000 243 Climbing FlightAware ADS-B
Mon 11:24:03 PM 30.7495 -95.3552 52° Northeast 576 663 33,000  Level FlightAware ADS-B
Mon 11:24:32 PM 30.7971 -95.2820 53° Northeast 575 662 33,000  Level FlightAware ADS-B
Mon 11:25:02 PM 30.8452 -95.2077 53° Northeast 574 661 33,000  Level FlightAware ADS-B
Mon 11:25:33 PM 30.8896 -95.1392 52° Northeast 574 661 33,000  Level FlightAware ADS-B
Mon 11:26:03 PM 30.9412 -95.0598 52° Northeast 576 663 33,000  Level FlightAware ADS-B
Mon 11:26:32 PM 30.9887 -94.9860 53° Northeast 576 663 33,000  Level FlightAware ADS-B
Mon 11:27:02 PM 31.0371 -94.9109 53° Northeast 577 664 33,000  Level FlightAware ADS-B
Mon 11:27:32 PM 31.0851 -94.8363 53° Northeast 579 666 33,000 92 Level FlightAware ADS-B
Mon 11:28:07 PM 31.1425 -94.7521 49° Northeast 576 663 33,100  Climbing FlightAware ADS-B
Mon 11:28:38 PM 31.1983 -94.6829 44° Northeast 573 659 33,000 -97 Descending FlightAware ADS-B
Mon 11:29:09 PM 31.2616 -94.6184 38° Northeast 567 652 33,000  Level FlightAware ADS-B (KHOU)
Mon 11:29:41 PM 31.3230 -94.5639 37° Northeast 566 651 33,000  Level FlightAware ADS-B
Mon 11:30:12 PM 31.3905 -94.5051 37° Northeast 570 656 33,000  Level FlightAware ADS-B
Mon 11:30:42 PM 31.4485 -94.4529 38° Northeast 569 655 33,000  Level FlightAware ADS-B
Mon 11:31:11 PM 31.5104 -94.3960 38° Northeast 571 657 33,000  Level FlightAware ADS-B
Mon 11:31:42 PM 31.5783 -94.3334 38° Northeast 571 657 33,000  Level FlightAware ADS-B
Mon 11:32:11 PM 31.6340 -94.2818 38° Northeast 570 656 33,000  Level FlightAware ADS-B
Mon 11:32:42 PM 31.7016 -94.2193 38° Northeast 570 656 33,000  Level FlightAware ADS-B
Mon 11:33:12 PM 31.7643 -94.1616 38° Northeast 571 657 33,000  Level FlightAware ADS-B
Mon 11:33:37 PM 31.8090 -94.1202 38° Northeast 571 657 33,000  Level FlightAware ADS-B
Mon 11:34:07 PM 31.8801 -94.0543 39° Northeast 572 658 33,000  Level FlightAware ADS-B
Mon 11:34:38 PM 31.9433 -93.9953 39° Northeast 571 657 33,000  Level FlightAware ADS-B
Mon 11:34:59 PM 31.9873 -93.9540 38° Northeast 570 656 33,000  Level FlightAware ADS-B (KHOU)
Mon 11:35:08 PM 32.0077 -93.9350 39° Northeast 569 655 33,000  Level FlightAware ADS-B
Mon 11:35:29 PM 32.0387 -93.9060 38° Northeast 570 656 33,000  Level FlightAware ADS-B (KHOU)
Mon 11:35:39 PM 32.0662 -93.8800 39° Northeast 571 657 33,000  Level FlightAware ADS-B
Mon 11:35:59 PM 32.1101 -93.8387 38° Northeast 571 657 33,000  Level FlightAware ADS-B (KHOU)
Mon 11:36:09 PM 32.1318 -93.8182 39° Northeast 572 658 33,000  Level FlightAware ADS-B
Mon 11:36:29 PM 32.1655 -93.7862 38° Northeast 573 659 33,000  Level FlightAware ADS-B (KHOU)
Mon 11:36:48 PM 32.2146 -93.7397 39° Northeast 573 659 33,000  Level FlightAware ADS-B
Mon 11:36:59 PM 32.2353 -93.7201 38° Northeast 572 658 33,000  Level FlightAware ADS-B (KHOU)
Mon 11:37:19 PM 32.2759 -93.6821 39° Northeast 574 661 33,000  Level FlightAware ADS-B
Mon 11:37:25 PM 32.2893 -93.6694 38° Northeast 572 658 33,000  Level FlightAware ADS-B (KHOU)
Mon 11:37:49 PM 32.3401 -93.6214 39° Northeast 573 659 33,000  Level FlightAware ADS-B
Mon 11:38:00 PM 32.3615 -93.6011 38° Northeast 572 658 33,000  Level FlightAware ADS-B (KHOU)
Mon 11:38:19 PM 32.4022 -93.5626 39° Northeast 574 661 33,000  Level FlightAware ADS-B
Mon 11:38:25 PM 32.4085 -93.5567 38° Northeast 573 659 33,000  Level FlightAware ADS-B (KHOU)
Mon 11:38:58 PM 32.4754 -93.4930 39° Northeast 578 665 33,000  Level FlightAware ADS-B
Mon 11:39:00 PM 32.4857 -93.4832 38° Northeast 577 664 33,000  Level FlightAware ADS-B (KHOU)
Mon 11:39:28 PM 32.5446 -93.4275 39° Northeast 579 666 33,000  Level FlightAware ADS-B
Mon 11:39:58 PM 32.6082 -93.3674 39° Northeast 572 658 33,000  Level FlightAware ADS-B
Mon 11:40:04 PM 32.6202 -93.3561 38° Northeast 571 657 33,000  Level FlightAware ADS-B (KHOU)
Mon 11:40:29 PM 32.6718 -93.3071 39° Northeast 567 652 33,000  Level FlightAware ADS-B
Mon 11:40:35 PM 32.6728 -93.3060 38° Northeast 565 650 33,000  Level FlightAware ADS-B (KHOU)
Mon 11:40:59 PM 32.7279 -93.2530 39° Northeast 562 647 33,000  Level FlightAware ADS-B
Mon 11:41:04 PM 32.7402 -93.2412 39° Northeast 562 647 33,000  Level FlightAware ADS-B (KHOU)
Mon 11:41:12 PM 32.7597 -93.2224 39° Northeast 562 647 33,000  Level FlightAware ADS-B (KHOU)
Mon 11:41:42 PM 32.8171 -93.1673 39° Northeast 562 647 33,000  Level FlightAware ADS-B
Mon 11:42:03 PM 32.8612 -93.1249 39° Northeast 562 647 33,000  Level FlightAware ADS-B (KHOU)
Mon 11:42:19 PM 32.8878 -93.0995 39° Northeast 564 649 33,000  Level FlightAware ADS-B
Mon 11:42:29 PM 32.9085 -93.0796 39° Northeast 563 648 33,000  Level FlightAware ADS-B (KHOU)
Mon 11:42:49 PM 32.9529 -93.0369 39° Northeast 564 649 33,000  Level FlightAware ADS-B
Mon 11:43:19 PM 33.0163 -92.9759 39° Northeast 565 650 33,000  Level FlightAware ADS-B
Mon 11:43:49 PM 33.0776 -92.9171 39° Northeast 563 648 33,000  Level FlightAware ADS-B
Mon 11:44:29 PM 33.1543 -92.8360 46° Northeast 568 654 33,000  Level FlightAware ADS-B
Mon 11:45:09 PM 33.2241 -92.7417 52° Northeast 570 656 33,000  Level FlightAware ADS-B
Mon 11:46:29 PM 33.3321 -92.5369 65° Northeast 568 654 33,000  Level FlightAware ADS-B
Mon 11:47:17 PM 33.3864 -92.3906 66° East 565 650 33,000  Level FlightAware ADS-B
Mon 11:47:49 PM 33.4194 -92.3002 67° East 562 647 33,000  Level FlightAware ADS-B
Mon 11:48:29 PM 33.4609 -92.1853 67° East 562 647 33,000  Level FlightAware ADS-B
Mon 11:53:32 PM 33.7769 -91.3059 67° East 583 671 33,000  Level FlightAware ADS-B
Mon 11:54:26 PM 33.8315 -91.1506 67° East 579 666 33,000  Level FlightAware ADS-B
Mon 11:54:59 PM 33.8644 -91.0558 67° East 580 667 33,000  Level Memphis Center
Mon 11:56:00 PM 33.9272 -90.8775 67° East 579 666 33,000  Level Memphis Center
Mon 11:57:01 PM 33.9892 -90.7000 67° East 580 667 33,000  Level Memphis Center
Mon 11:58:02 PM 34.0508 -90.5219 67° East 578 665 33,000  Level Memphis Center
Mon 11:59:03 PM 34.1139 -90.3389 67° East 577 664 33,000  Level Memphis Center
Tue 12:00:04 AM 34.1767 -90.1683 66° East 582 670 33,000  Level Memphis Center
Tue 12:01:05 AM 34.2833 -90.0197 49° Northeast 586 674 33,000  Level Memphis Center
Tue 12:02:06 AM 34.3939 -89.8778 47° Northeast 585 673 33,000  Level Memphis Center
Tue 12:03:07 AM 34.5056 -89.7381 46° Northeast 584 672 33,000  Level Memphis Center
Tue 12:04:08 AM 34.6383 -89.5711 46° Northeast 584 672 33,000  Level Memphis Center
Tue 12:05:09 AM 34.7486 -89.4319 46° Northeast 583 671 33,000  Level Memphis Center
Tue 12:06:10 AM 34.8597 -89.2911 46° Northeast 584 672 33,000  Level Memphis Center
Tue 12:07:11 AM 34.9706 -89.1500 46° Northeast 583 671 33,000  Level Memphis Center
Tue 12:08:11 AM 35.0853 -89.0036 46° Northeast 582 670 33,000  Level Memphis Center
Tue 12:09:12 AM 35.1925 -88.8656 46° Northeast 582 670 33,000  Level Memphis Center
Tue 12:10:13 AM 35.3028 -88.7236 46° Northeast 580 667 33,000  Level Memphis Center
Tue 12:11:14 AM 35.4250 -88.5653 47° Northeast 578 665 33,000  Level Memphis Center
Tue 12:12:15 AM 35.5342 -88.4231 47° Northeast 577 664 33,000  Level Memphis Center
Tue 12:13:16 AM 35.6433 -88.2808 47° Northeast 575 662 33,000 -344 Level Memphis Center
Tue 12:14:17 AM 35.7622 -88.1247 47° Northeast 575 662 32,300 -689 Descending Memphis Center
Tue 12:15:18 AM 35.8725 -87.9792 47° Northeast 575 662 31,600 -639 Descending Memphis Center
Tue 12:16:19 AM 35.9842 -87.8311 47° Northeast 580 667 31,000 -298 Descending Memphis Center
Tue 12:17:19 AM 36.0994 -87.6781 47° Northeast 581 669 31,000  Level Memphis Center
Tue 12:18:20 AM 36.2081 -87.5336 47° Northeast 583 671 31,000 -750 Level Memphis Center
Tue 12:23:43 AM 36.7873 -86.7490 48° Northeast 554 638 26,200 -1,043 Descending FlightAware ADS-B (EPWR / WRO)
Tue 12:24:28 AM 36.8637 -86.6442 48° Northeast 550 633 24,600 -2,133 Descending FlightAware ADS-B (EPWR / WRO)
Tue 12:25:13 AM 36.9345 -86.5456 48° Northeast 512 589 23,000 -2,386 Descending FlightAware ADS-B (EPWR / WRO)
Tue 12:25:56 AM 37.0027 -86.4516 48° Northeast 487 560 21,100 -2,712 Descending FlightAware ADS-B (EPWR / WRO)
Tue 12:26:26 AM 37.0491 -86.3873 48° Northeast 477 549 19,700 -2,806 Descending FlightAware ADS-B (EPWR / WRO)
Tue 12:26:58 AM 37.0962 -86.3218 48° Northeast 465 535 18,200 -2,842 Descending FlightAware ADS-B (EPWR / WRO)
Tue 12:27:42 AM 37.1591 -86.2343 48° Northeast 453 521 16,100 -2,161 Descending FlightAware ADS-B (EPWR / WRO)
Tue 12:29:39 AM 37.3153 -86.0157 48° Northeast 417 480 12,400 -1,636 Descending FlightAware ADS-B (EPWR / WRO)
Tue 12:30:27 AM 37.3747 -85.9324 48° Northeast 412 474 11,600 -835 Descending FlightAware ADS-B (EPWR / WRO)
Tue 12:30:58 AM 37.3993 -85.8978 48° Northeast 390 449 11,300 -682 Descending FlightAware ADS-B (EPWR / WRO)
Tue 12:31:55 AM 37.4895 -85.8201 North 311 358 10,600 -720 Descending FlightAware ADS-B (EPWR / WRO)
Tue 12:32:13 AM 37.5132 -85.8136 25° Northeast 313 360 10,400 -727 Descending FlightAware ADS-B (EPWR / WRO)
Tue 12:32:28 AM 37.5321 -85.7952 48° Northeast 316 364 10,200 -800 Descending FlightAware ADS-B (EPWR / WRO)
Tue 12:32:43 AM 37.5433 -85.7729 61° Northeast 317 365 10,000 -1,000 Descending FlightAware ADS-B (EPWR / WRO)
Tue 12:32:58 AM 37.5542 -85.7485 61° Northeast 314 361 9,700 -1,355 Descending FlightAware ADS-B (EPWR / WRO)
Tue 12:33:14 AM 37.5656 -85.7231 61° Northeast 313 360 9,300 -1,355 Descending FlightAware ADS-B (EPWR / WRO)
Tue 12:33:29 AM 37.5765 -85.6990 60° Northeast 312 359 9,000 -1,227 Descending FlightAware ADS-B (EPWR / WRO)
Tue 12:33:58 AM 37.5972 -85.6532 60° Northeast 306 352 8,400 -955 Descending FlightAware ADS-B (EPWR / WRO)
Tue 12:34:13 AM 37.6072 -85.6308 61° Northeast 302 348 8,300 -400 Descending FlightAware ADS-B (EPWR / WRO)
Tue 12:34:28 AM 37.6171 -85.6083 61° Northeast 300 345 8,200 -194 Descending FlightAware ADS-B (EPWR / WRO)
Tue 12:34:44 AM 37.6277 -85.5843 61° Northeast 300 345 8,200 130 Level FlightAware ADS-B (EPWR / WRO)
Tue 12:35:14 AM 37.6473 -85.5398 61° Northeast 302 348 8,300  Climbing FlightAware ADS-B (EPWR / WRO)
Tue 12:35:29 AM 37.6584 -85.5148 61° Northeast 304 350 8,200 -391 Descending FlightAware ADS-B (EPWR / WRO)
Tue 12:36:00 AM 37.6747 -85.4783 61° Northeast 303 349 8,000 -130 Descending Indianapolis Center
Tue 12:37:01 AM 37.7172 -85.3847 60° Northeast 305 351 8,000  Level Indianapolis Center
Tue 12:38:01 AM 37.7611 -85.2931 59° Northeast 296 341 8,000 50 Level Indianapolis Center
Tue 12:39:02 AM 37.8353 -85.2756 11° North 232 267 8,100  Climbing Indianapolis Center
Tue 12:40:03 AM 37.8947 -85.2703 North 231 266 8,000 -49 Descending Indianapolis Center
Tue 12:41:04 AM 37.9567 -85.2644 North 230 265 8,000  Level Indianapolis Center
Tue 12:42:04 AM 38.0203 -85.2608 North 226 260 8,000  Level Indianapolis Center
Tue 12:43:05 AM 38.0781 -85.2836 343° North 219 252 8,000  Level Indianapolis Center
Tue 12:44:06 AM 38.1364 -85.3064 343° North 219 252 8,000  Level Indianapolis Center
Tue 12:45:07 AM 38.1947 -85.3292 343° North 219 252 8,000  Level Indianapolis Center
Tue 12:46:07 AM 38.2531 -85.3522 343° North 218 251 8,000  Level Indianapolis Center
Tue 12:47:08 AM 38.3111 -85.3756 342° North 219 252 8,000  Level Indianapolis Center
Tue 12:48:09 AM 38.3681 -85.3997 342° North 217 250 8,000  Level Indianapolis Center
Tue 12:49:09 AM 38.3739 -85.4686 276° West 208 239 8,000 -50 Level Indianapolis Center
Tue 12:50:10 AM 38.3664 -85.5428 263° West 209 241 7,900 -787 Descending Indianapolis Center
Tue 12:51:11 AM 38.3592 -85.6175 263° West 210 242 6,400 -942 Descending Indianapolis Center
Tue 12:52:11 AM 38.3117 -85.6578 214° Southwest 213 245 6,000 -347 Descending Indianapolis Center
Tue 12:53:12 AM 38.2519 -85.6547 178° South 220 253 5,700 -639 Descending Indianapolis Center
Tue 12:54:13 AM 38.1903 -85.6386 168° South 221 254 4,700 -843 Descending Indianapolis Center
Tue 12:55:13 AM 38.1292 -85.6197 166° South 223 257 4,000 -545 Descending Indianapolis Center
Tue 12:56:14 AM 38.0681 -85.5983 165° South 223 257 3,600 -273 Descending Indianapolis Center
Tue 12:58:31 AM 37.9333 -85.5333 159° South 218 251 3,100 -105 Descending Louisville TRACON
Tue 01:01:01 AM 37.7833 -85.4833 165° South 185 213 3,100  Level Louisville TRACON
Tue 01:03:31 AM 37.8167 -85.6000 290° West 156 180 3,100  Level Louisville TRACON
Tue 01:06:01 AM 37.9167 -85.6333 345° North 151 174 3,100  Level Louisville TRACON
Tue 01:08:30 AM 38.0333 -85.6833 341° North 159 183 3,100 -316 Level Louisville TRACON
Tue 01:10:46 AM 38.1167 -85.7000 351° North 127 146 1,600 -662 Descending Louisville TRACON

Login

Don't have an account? Register now (free) for customized features, flight alerts, and more!